Time;durP1;ratioP1;P1;durP2;ratioP2;P2;SDS_P1;SDS_P2;PMS_P1;PMS_P2;Temp;Humidity;BMP_temperature;BMP_pressure;BME280_temperature;BME280_humidity;BME280_pressure;Samples;Min_cycle;Max_cycle;Signal;HPM_P1;HPM_P2
2023/07/22 00:00:30;;;;;;;0.30;0.30;;;24.00;66.00;;;;;;6298555;28;20047;-50
2023/07/22 00:03:33;;;;;;;0.50;0.30;;;;;;;;;;6296147;28;20082;-49
2023/07/22 00:06:34;;;;;;;0.30;0.25;;;;;;;;;;6296900;28;20033;-49
2023/07/22 00:09:38;;;;;;;0.52;0.32;;;23.90;70.40;;;;;;6294527;28;20490;-50
2023/07/22 00:12:40;;;;;;;0.30;0.30;;;;;;;;;;6292376;28;20311;-53
2023/07/22 00:15:42;;;;;;;0.40;0.40;;;;;;;;;;6294207;28;20036;-52
2023/07/22 00:18:45;;;;;;;0.35;0.22;;;;;;;;;;6295932;28;20047;-48
2023/07/22 00:21:48;;;;;;;0.50;0.30;;;;;;;;;;6289578;28;20044;-48
2023/07/22 00:24:50;;;;;;;0.55;0.40;;;24.00;70.10;;;;;;6296283;28;20400;-47
2023/07/22 00:27:57;;;;;;;0.20;0.20;;;24.00;70.90;;;;;;6292003;28;20055;-49
2023/07/22 00:31:00;;;;;;;0.50;0.40;;;;;;;;;;6286827;28;20105;-49
2023/07/22 00:34:02;;;;;;;0.50;0.35;;;;;;;;;;6282136;28;20065;-49
2023/07/22 00:37:07;;;;;;;0.50;0.40;;;;;;;;;;6291302;28;20036;-52
2023/07/22 00:40:11;;;;;;;0.28;0.20;;;23.90;71.20;;;;;;6295044;28;20040;-48
2023/07/22 00:43:13;;;;;;;0.40;0.40;;;;;;;;;;6297502;28;20421;-53
2023/07/22 00:46:15;;;;;;;0.22;0.20;;;;;;;;;;6295870;28;20043;-53
2023/07/22 00:49:17;;;;;;;0.50;0.30;;;;;;;;;;6293822;28;20068;-51
2023/07/22 00:52:19;;;;;;;0.55;0.40;;;23.90;70.50;;;;;;6295789;28;20036;-52
2023/07/22 00:55:22;;;;;;;0.20;0.20;;;23.90;71.70;;;;;;6291114;28;20070;-51
2023/07/22 00:58:24;;;;;;;0.40;0.28;;;;;;;;;;6295889;28;20032;-51
2023/07/22 01:01:30;;;;;;;0.30;0.30;;;;;;;;;;6308838;22;20055;-86
2023/07/22 01:04:33;;;;;;;0.25;0.22;;;23.90;71.60;;;;;;6323504;28;20036;-86
2023/07/22 01:07:35;;;;;;;0.38;0.30;;;;;;;;;;6320817;28;20086;-86
2023/07/22 01:10:39;;;;;;;0.32;0.30;;;23.80;71.10;;;;;;6316375;28;20105;-86
2023/07/22 01:13:41;;;;;;;0.32;0.20;;;;;;;;;;6304948;28;20070;-86
2023/07/22 01:16:43;;;;;;;0.30;0.20;;;;;;;;;;6326889;28;20040;-86
2023/07/22 01:19:45;;;;;;;0.35;0.30;;;;;;;;;;6322746;28;20047;-86
2023/07/22 01:22:54;;;;;;;0.47;0.30;;;;;;;;;;6321997;28;20063;-85
2023/07/22 01:25:56;;;;;;;0.40;0.30;;;23.90;71.90;;;;;;6329861;28;20055;-86
2023/07/22 01:29:07;;;;;;;0.60;0.40;;;;;;;;;;6326530;28;20267;-86
2023/07/22 01:32:09;;;;;;;0.30;0.20;;;;;;;;;;6328956;28;20040;-86
2023/07/22 01:35:12;;;;;;;0.30;0.30;;;;;;;;;;6328007;28;20127;-86
2023/07/22 01:38:14;;;;;;;0.20;0.20;;;;;;;;;;6326188;28;20067;-86
2023/07/22 01:41:16;;;;;;;0.40;0.30;;;;;;;;;;6327095;28;20048;-86
2023/07/22 01:44:18;;;;;;;0.35;0.30;;;;;;;;;;6328875;28;20040;-86
2023/07/22 01:47:20;;;;;;;0.50;0.50;;;;;;;;;;6329309;28;20051;-86
2023/07/22 01:50:22;;;;;;;0.45;0.35;;;;;;;;;;6327849;28;20037;-85
2023/07/22 01:53:25;;;;;;;0.45;0.30;;;;;;;;;;6331204;28;20067;-85
2023/07/22 01:56:27;;;;;;;0.50;0.40;;;;;;;;;;6328430;28;20051;-86
2023/07/22 01:59:32;;;;;;;0.30;0.20;;;23.70;71.70;;;;;;6327338;28;20427;-86
2023/07/22 02:02:39;;;;;;;0.30;0.30;;;;;;;;;;6327065;28;20044;-85
2023/07/22 02:05:41;;;;;;;0.40;0.30;;;;;;;;;;6329825;28;20047;-86
2023/07/22 02:08:44;;;;;;;0.43;0.30;;;;;;;;;;6328606;28;20130;-86
2023/07/22 02:11:47;;;;;;;0.30;0.28;;;;;;;;;;6328261;28;20041;-86
2023/07/22 02:14:49;;;;;;;0.40;0.30;;;;;;;;;;6332104;28;20052;-86
2023/07/22 02:17:51;;;;;;;0.93;0.50;;;;;;;;;;6332199;28;20083;-86
2023/07/22 02:20:55;;;;;;;0.38;0.20;;;;;;;;;;6331503;28;20062;-86
2023/07/22 02:23:57;;;;;;;0.40;0.30;;;;;;;;;;6330780;28;20059;-86
2023/07/22 02:27:01;;;;;;;0.63;0.40;;;23.60;72.50;;;;;;6331403;28;20059;-86
2023/07/22 02:30:04;;;;;;;0.30;0.30;;;;;;;;;;6332036;28;20534;-86
2023/07/22 02:33:08;;;;;;;0.40;0.30;;;;;;;;;;6331320;28;20108;-86
2023/07/22 02:36:10;;;;;;;0.60;0.50;;;;;;;;;;6318044;28;20037;-86
2023/07/22 02:39:14;;;;;;;0.52;0.40;;;;;;;;;;6337677;28;20051;-86
2023/07/22 02:42:16;;;;;;;0.60;0.40;;;;;;;;;;6337397;28;20341;-86
2023/07/22 02:45:19;;;;;;;0.32;0.32;;;;;;;;;;6336825;28;20047;-86
2023/07/22 02:48:21;;;;;;;0.43;0.43;;;;;;;;;;6337877;28;20032;-86
2023/07/22 02:51:23;;;;;;;0.70;0.50;;;;;;;;;;6337284;28;20103;-86
2023/07/22 02:54:27;;;;;;;0.60;0.47;;;;;;;;;;6336193;28;20070;-86
2023/07/22 02:57:29;;;;;;;0.77;0.40;;;;;;;;;;6335895;28;20033;-86
2023/07/22 03:00:32;;;;;;;0.55;0.40;;;;;;;;;;6317445;28;20044;-85
2023/07/22 03:03:34;;;;;;;0.57;0.40;;;;;;;;;;6336746;28;20040;-86
2023/07/22 03:06:38;;;;;;;0.50;0.43;;;;;;;;;;6335312;28;20040;-86
2023/07/22 03:09:41;;;;;;;0.40;0.35;;;;;;;;;;6335897;28;20112;-86
2023/07/22 03:12:43;;;;;;;0.50;0.32;;;;;;;;;;6336172;28;20280;-86
2023/07/22 03:15:48;;;;;;;0.73;0.60;;;;;;;;;;6336284;28;20044;-86
2023/07/22 03:18:50;;;;;;;0.60;0.40;;;;;;;;;;6337251;28;20044;-86
2023/07/22 03:21:52;;;;;;;0.50;0.50;;;;;;;;;;6335010;28;20048;-86
2023/07/22 03:24:54;;;;;;;0.40;0.32;;;;;;;;;;6337274;28;20040;-86
2023/07/22 03:27:56;;;;;;;0.73;0.60;;;;;;;;;;6335278;28;20102;-85
2023/07/22 03:31:00;;;;;;;0.40;0.40;;;;;;;;;;6335586;28;20036;-85
2023/07/22 03:34:03;;;;;;;0.40;0.30;;;;;;;;;;6336304;28;20043;-86
2023/07/22 03:37:05;;;;;;;0.55;0.35;;;;;;;;;;6336245;28;20071;-86
2023/07/22 03:40:14;;;;;;;0.50;0.45;;;23.20;71.50;;;;;;6336944;28;20403;-86
2023/07/22 03:43:16;;;;;;;0.60;0.60;;;;;;;;;;6337805;28;20043;-86
2023/07/22 03:46:20;;;;;;;0.60;0.50;;;;;;;;;;6335668;28;20048;-86
2023/07/22 03:49:22;;;;;;;0.65;0.50;;;;;;;;;;6336983;28;20040;-86
2023/07/22 03:52:24;;;;;;;0.93;0.50;;;;;;;;;;6336290;28;20518;-86
2023/07/22 03:55:27;;;;;;;0.47;0.40;;;;;;;;;;6335915;28;20107;-86
2023/07/22 03:58:29;;;;;;;0.47;0.30;;;;;;;;;;6337217;28;20059;-85
2023/07/22 04:01:31;;;;;;;0.90;0.73;;;;;;;;;;6337023;28;20244;-86
2023/07/22 04:04:33;;;;;;;0.80;0.50;;;;;;;;;;6336610;28;20055;-86
2023/07/22 04:07:35;;;;;;;0.50;0.50;;;;;;;;;;6332375;28;20044;-86
2023/07/22 04:10:38;;;;;;;0.60;0.43;;;;;;;;;;6336872;28;20052;-86
2023/07/22 04:13:40;;;;;;;0.40;0.40;;;;;;;;;;6337347;28;20276;-86
2023/07/22 04:16:42;;;;;;;0.60;0.40;;;;;;;;;;6334430;28;20104;-86
2023/07/22 04:19:44;;;;;;;0.50;0.40;;;;;;;;;;6327129;28;20040;-86
2023/07/22 04:22:49;;;;;;;0.93;0.52;;;;;;;;;;6324351;28;20107;-86
2023/07/22 04:25:51;;;;;;;0.52;0.40;;;;;;;;;;6323634;28;20044;-86
2023/07/22 04:28:53;;;;;;;0.73;0.60;;;;;;;;;;6326295;28;20119;-86
2023/07/22 04:32:00;;;;;;;0.40;0.40;;;;;;;;;;6325402;28;20044;-86
2023/07/22 04:35:04;;;;;;;0.47;0.47;;;;;;;;;;6324272;28;20052;-86
2023/07/22 04:38:07;;;;;;;1.15;0.50;;;;;;;;;;6324162;28;20040;-86
2023/07/22 04:41:10;;;;;;;0.50;0.40;;;;;;;;;;6324838;28;20043;-86
2023/07/22 04:44:11;;;;;;;0.50;0.40;;;;;;;;;;6322389;28;20044;-86
2023/07/22 04:47:16;;;;;;;1.55;0.40;;;;;;;;;;6321998;28;20499;-86
2023/07/22 04:50:18;;;;;;;0.57;0.45;;;;;;;;;;6323719;28;20239;-86
2023/07/22 04:53:24;;;;;;;0.35;0.30;;;;;;;;;;6332108;28;20044;-89
2023/07/22 04:56:27;;;;;;;0.40;0.40;;;;;;;;;;6343353;28;20043;-89
2023/07/22 04:59:29;;;;;;;0.60;0.60;;;;;;;;;;6343267;28;20043;-89
2023/07/22 05:02:34;;;;;;;0.30;0.30;;;23.10;73.20;;;;;;6341467;28;20096;-88
2023/07/22 05:05:36;;;;;;;0.57;0.55;;;;;;;;;;6337075;28;20039;-88
2023/07/22 05:08:38;;;;;;;0.52;0.45;;;;;;;;;;6337178;28;20075;-88
2023/07/22 05:11:41;;;;;;;0.93;0.50;;;;;;;;;;6341658;28;20051;-88
2023/07/22 05:14:46;;;;;;;0.75;0.50;;;;;;;;;;6339253;28;20047;-89
2023/07/22 05:17:48;;;;;;;1.05;0.60;;;;;;;;;;6339341;28;20040;-89
2023/07/22 05:20:53;;;;;;;0.80;0.50;;;;;;;;;;6338601;28;20048;-88
2023/07/22 05:23:55;;;;;;;0.68;0.50;;;;;;;;;;6340107;28;20051;-89
2023/07/22 05:26:57;;;;;;;0.45;0.40;;;;;;;;;;6341026;28;20028;-88
2023/07/22 05:30:11;;;;;;;0.50;0.50;;;;;;;;;;6341514;28;20036;-88
2023/07/22 05:33:32;;;;;;;0.50;0.50;;;;;;;;;;6324961;28;20268;-89
2023/07/22 05:36:34;;;;;;;0.50;0.47;;;;;;;;;;6340170;28;20062;-90
2023/07/22 05:39:36;;;;;;;0.40;0.40;;;;;;;;;;6342529;28;20093;-89
2023/07/22 05:42:39;;;;;;;0.47;0.47;;;;;;;;;;6339141;28;20146;-88
2023/07/22 05:45:41;;;;;;;0.50;0.50;;;;;;;;;;6340100;28;20040;-88
2023/07/22 05:48:43;;;;;;;0.75;0.50;;;;;;;;;;6340626;28;20048;-88
2023/07/22 05:51:45;;;;;;;0.47;0.40;;;;;;;;;;6337650;28;20048;-89
2023/07/22 05:54:47;;;;;;;0.55;0.50;;;;;;;;;;6338802;28;20024;-88
2023/07/22 05:57:49;;;;;;;0.40;0.40;;;;;;;;;;6339026;28;20044;-89
2023/07/22 06:00:55;;;;;;;0.32;0.32;;;;;;;;;;6341161;28;20044;-88
2023/07/22 06:03:57;;;;;;;0.50;0.40;;;;;;;;;;6340401;28;20032;-89
2023/07/22 06:06:59;;;;;;;0.90;0.60;;;;;;;;;;6342689;28;20044;-88
2023/07/22 06:10:01;;;;;;;0.80;0.50;;;;;;;;;;6349423;28;20036;-88
2023/07/22 06:13:03;;;;;;;0.60;0.50;;;;;;;;;;6350742;28;20058;-88
2023/07/22 06:16:05;;;;;;;0.45;0.40;;;;;;;;;;6351577;28;20025;-89
2023/07/22 06:19:08;;;;;;;0.43;0.30;;;;;;;;;;6350995;28;20058;-88
2023/07/22 06:22:09;;;;;;;2.83;1.02;;;;;;;;;;6351965;28;20064;-88
2023/07/22 06:25:11;;;;;;;0.68;0.40;;;;;;;;;;6351663;28;20107;-89
2023/07/22 06:28:14;;;;;;;0.60;0.50;;;;;;;;;;6350989;28;20039;-88
2023/07/22 06:31:18;;;;;;;0.50;0.40;;;;;;;;;;6351615;28;20225;-89
2023/07/22 06:34:20;;;;;;;0.70;0.55;;;;;;;;;;6351263;28;20067;-88
2023/07/22 06:37:22;;;;;;;0.70;0.40;;;;;;;;;;6351407;28;20040;-89
2023/07/22 06:40:24;;;;;;;0.60;0.50;;;;;;;;;;6351042;28;20055;-88
2023/07/22 06:43:27;;;;;;;0.40;0.40;;;;;;;;;;6350614;28;20100;-88
2023/07/22 06:46:29;;;;;;;0.60;0.40;;;;;;;;;;6349828;28;20104;-89
2023/07/22 06:49:32;;;;;;;0.52;0.50;;;;;;;;;;6350515;28;20032;-88
2023/07/22 06:52:34;;;;;;;0.52;0.50;;;;;;;;;;6350299;28;20035;-89
2023/07/22 06:55:36;;;;;;;0.50;0.40;;;;;;;;;;6350434;28;20055;-88
2023/07/22 06:58:39;;;;;;;0.40;0.40;;;;;;;;;;6350760;28;20048;-89
2023/07/22 07:01:41;;;;;;;0.73;0.38;;;;;;;;;;6351203;28;20036;-89
2023/07/22 07:04:43;;;;;;;0.57;0.47;;;;;;;;;;6349135;28;20051;-88
2023/07/22 07:07:45;;;;;;;0.73;0.50;;;;;;;;;;6349306;28;20043;-89
2023/07/22 07:10:47;;;;;;;0.75;0.63;;;;;;;;;;6350002;28;20055;-88
2023/07/22 07:13:49;;;;;;;0.38;0.30;;;;;;;;;;6350184;28;20111;-88
2023/07/22 07:16:51;;;;;;;0.60;0.55;;;;;;;;;;6349858;28;20040;-88
2023/07/22 07:19:53;;;;;;;0.55;0.43;;;;;;;;;;6349034;28;20040;-88
2023/07/22 07:22:55;;;;;;;0.40;0.38;;;;;;;;;;6350189;28;20032;-88
2023/07/22 07:25:57;;;;;;;0.70;0.50;;;;;;;;;;6349725;28;20030;-89
2023/07/22 07:29:00;;;;;;;0.50;0.35;;;;;;;;;;6350457;28;20059;-88
2023/07/22 07:32:02;;;;;;;0.40;0.40;;;;;;;;;;6350527;28;20028;-89
2023/07/22 07:35:06;;;;;;;0.45;0.30;;;;;;;;;;6350010;28;20038;-88
2023/07/22 07:38:08;;;;;;;0.63;0.30;;;;;;;;;;6349906;28;20044;-88
2023/07/22 07:41:13;;;;;;;0.20;0.20;;;23.20;69.50;;;;;;6350354;28;20040;-88
2023/07/22 07:44:16;;;;;;;0.52;0.43;;;;;;;;;;6350453;28;20044;-88
2023/07/22 07:47:18;;;;;;;0.35;0.30;;;;;;;;;;6350983;28;20111;-89
2023/07/22 07:50:20;;;;;;;0.50;0.40;;;;;;;;;;6349507;28;20036;-89
2023/07/22 07:53:22;;;;;;;0.38;0.30;;;;;;;;;;6349524;28;20067;-88
2023/07/22 07:56:24;;;;;;;0.50;0.40;;;;;;;;;;6349947;28;20036;-88
2023/07/22 07:59:27;;;;;;;0.43;0.30;;;;;;;;;;6350605;28;20111;-88
2023/07/22 08:02:29;;;;;;;0.57;0.55;;;;;;;;;;6351281;28;20048;-89
2023/07/22 08:05:31;;;;;;;0.30;0.30;;;;;;;;;;6351199;28;20028;-89
2023/07/22 08:08:34;;;;;;;0.82;0.50;;;;;;;;;;6338604;28;20059;-92
2023/07/22 08:11:36;;;;;;;0.50;0.47;;;;;;;;;;6336298;28;20032;-91
2023/07/22 08:14:38;;;;;;;0.38;0.30;;;;;;;;;;6336686;28;20048;-91
2023/07/22 08:17:40;;;;;;;0.60;0.50;;;;;;;;;;6337163;28;20044;-91
2023/07/22 08:20:42;;;;;;;0.40;0.40;;;;;;;;;;6337146;28;20074;-91
2023/07/22 08:23:46;;;;;;;0.60;0.40;;;;;;;;;;6335891;28;20512;-91
2023/07/22 08:26:48;;;;;;;0.47;0.30;;;;;;;;;;6335320;28;20047;-92
2023/07/22 08:29:51;;;;;;;0.50;0.43;;;;;;;;;;6334832;28;20043;-91
2023/07/22 08:32:53;;;;;;;0.63;0.40;;;;;;;;;;6334357;28;20040;-91
2023/07/22 08:35:55;;;;;;;0.40;0.38;;;;;;;;;;6335689;28;20077;-91
2023/07/22 08:38:57;;;;;;;0.77;0.40;;;;;;;;;;6334763;28;20036;-92
2023/07/22 08:42:03;;;;;;;0.40;0.40;;;23.20;71.40;;;;;;6339392;28;20040;-90
2023/07/22 08:45:07;;;;;;;0.50;0.40;;;;;;;;;;6285033;28;20044;-91
2023/07/22 08:48:09;;;;;;;0.40;0.30;;;23.30;70.80;;;;;;6313018;28;20062;-90
2023/07/22 08:51:16;;;;;;;0.32;0.30;;;23.30;70.80;;;;;;6320893;28;20259;-90
2023/07/22 08:54:18;;;;;;;0.40;0.40;;;;;;;;;;6320387;28;20048;-90
2023/07/22 08:57:20;;;;;;;0.30;0.30;;;;;;;;;;6319014;28;20047;-90
2023/07/22 09:00:23;;;;;;;0.60;0.50;;;;;;;;;;6326866;28;20347;-91
2023/07/22 09:03:25;;;;;;;0.70;0.50;;;;;;;;;;6325106;28;20590;-90
2023/07/22 09:06:28;;;;;;;0.30;0.30;;;;;;;;;;6319890;28;20043;-90
2023/07/22 09:09:31;;;;;;;0.40;0.40;;;;;;;;;;6330713;28;20044;-91
2023/07/22 09:12:39;;;;;;;0.60;0.47;;;;;;;;;;6330498;28;20079;-91
2023/07/22 09:15:44;;;;;;;0.45;0.40;;;;;;;;;;6331095;28;20047;-91
2023/07/22 09:18:46;;;;;;;0.55;0.47;;;;;;;;;;6327251;28;20105;-90
2023/07/22 09:21:48;;;;;;;0.50;0.43;;;;;;;;;;6319333;28;20044;-91
2023/07/22 09:24:52;;;;;;;0.47;0.38;;;;;;;;;;6319631;28;20086;-90
2023/07/22 09:27:55;;;;;;;0.75;0.63;;;23.30;70.90;;;;;;6320388;28;20073;-91
2023/07/22 09:31:02;;;;;;;0.47;0.40;;;;;;;;;;6323705;28;20036;-91
2023/07/22 09:34:10;;;;;;;0.75;0.70;;;23.30;70.80;;;;;;6324749;28;20040;-91
2023/07/22 09:37:12;;;;;;;0.60;0.40;;;;;;;;;;6327906;28;20048;-91
2023/07/22 09:40:15;;;;;;;0.40;0.40;;;;;;;;;;6328310;28;20044;-91
2023/07/22 09:43:17;;;;;;;0.57;0.45;;;;;;;;;;6332904;28;20054;-92
2023/07/22 09:46:20;;;;;;;0.57;0.40;;;;;;;;;;6344012;28;20063;-91
2023/07/22 09:49:28;;;;;;;0.50;0.45;;;;;;;;;;6345545;28;20075;-92
2023/07/22 09:52:31;;;;;;;0.40;0.40;;;;;;;;;;6345235;28;20055;-92
2023/07/22 09:55:34;;;;;;;0.55;0.47;;;23.50;72.20;;;;;;6342693;28;20100;-92
2023/07/22 09:58:36;;;;;;;0.57;0.57;;;;;;;;;;6324709;28;20043;-91
2023/07/22 10:01:39;;;;;;;0.90;0.50;;;23.40;69.60;;;;;;6341850;28;20036;-91
2023/07/22 10:04:46;;;;;;;0.50;0.45;;;23.40;69.80;;;;;;6342682;28;20052;-92
2023/07/22 10:07:50;;;;;;;0.80;0.60;;;23.60;71.20;;;;;;6343672;28;20059;-92
2023/07/22 10:10:55;;;;;;;0.50;0.50;;;23.40;71.50;;;;;;6345184;28;20032;-91
2023/07/22 10:13:58;;;;;;;0.50;0.50;;;;;;;;;;6344935;28;20112;-92
2023/07/22 10:17:03;;;;;;;0.47;0.43;;;;;;;;;;6344294;28;20552;-91
2023/07/22 10:20:07;;;;;;;0.50;0.40;;;;;;;;;;6343295;28;20052;-92
2023/07/22 10:23:11;;;;;;;0.45;0.45;;;;;;;;;;6343382;28;20028;-91
2023/07/22 10:26:14;;;;;;;0.40;0.40;;;;;;;;;;6342800;28;20036;-92
2023/07/22 10:29:16;;;;;;;0.35;0.35;;;;;;;;;;6341964;28;20051;-92
2023/07/22 10:32:23;;;;;;;0.63;0.50;;;23.60;69.90;;;;;;6341420;28;20044;-92
2023/07/22 10:35:40;;;;;;;0.47;0.40;;;23.70;68.20;;;;;;6342224;28;20046;-92
2023/07/22 10:38:42;;;;;;;0.88;0.47;;;;;;;;;;6324592;28;20028;-92
2023/07/22 10:41:47;;;;;;;0.60;0.60;;;23.60;68.40;;;;;;6340260;28;20035;-92
2023/07/22 10:44:49;;;;;;;0.60;0.50;;;;;;;;;;6339860;28;20040;-92
2023/07/22 10:48:05;;;;;;;0.50;0.45;;;23.80;69.10;;;;;;6339407;28;20032;-92
2023/07/22 10:51:10;;;;;;;0.40;0.40;;;23.80;68.80;;;;;;6326019;28;20082;-92
2023/07/22 10:54:13;;;;;;;0.85;0.50;;;;;;;;;;6342413;28;20035;-92
2023/07/22 10:57:25;;;;;;;0.80;0.50;;;23.70;68.70;;;;;;6343692;28;20195;-92
2023/07/22 11:00:30;;;;;;;0.63;0.50;;;23.70;68.60;;;;;;6344686;28;20096;-92
2023/07/22 11:03:35;;;;;;;0.60;0.45;;;;;;;;;;6326130;28;20078;-93
2023/07/22 11:06:38;;;;;;;0.68;0.40;;;23.80;68.60;;;;;;6339760;28;20086;-92
2023/07/22 11:09:43;;;;;;;0.45;0.40;;;;;;;;;;6338870;28;20064;-92
2023/07/22 11:12:46;;;;;;;0.75;0.40;;;23.80;68.00;;;;;;6355710;28;20048;-92
2023/07/22 11:15:49;;;;;;;0.45;0.40;;;23.80;68.90;;;;;;6321853;28;20044;-91
2023/07/22 11:18:51;;;;;;;1.15;0.65;;;23.90;67.70;;;;;;6340754;28;20044;-92
2023/07/22 11:21:54;;;;;;;0.50;0.43;;;23.80;67.30;;;;;;6337527;28;20044;-92
2023/07/22 11:24:57;;;;;;;0.90;0.60;;;;;;;;;;6338144;28;20046;-91
2023/07/22 11:28:01;;;;;;;0.77;0.40;;;;;;;;;;6337085;28;20047;-91
2023/07/22 11:31:05;;;;;;;0.50;0.40;;;;;;;;;;6338356;28;20130;-91
2023/07/22 11:34:08;;;;;;;0.43;0.40;;;;;;;;;;6337933;28;20032;-91
2023/07/22 11:37:10;;;;;;;0.40;0.35;;;;;;;;;;6339311;28;20039;-92
2023/07/22 11:40:13;;;;;;;0.65;0.30;;;;;;;;;;6337125;28;20079;-92
2023/07/22 11:43:15;;;;;;;0.65;0.40;;;;;;;;;;6338209;28;20074;-91
2023/07/22 11:46:17;;;;;;;0.50;0.40;;;;;;;;;;6338347;28;20140;-91
2023/07/22 11:49:24;;;;;;;0.50;0.50;;;;;;;;;;6337458;28;20043;-92
2023/07/22 11:52:26;;;;;;;0.50;0.40;;;;;;;;;;6338768;28;20063;-92
2023/07/22 11:55:28;;;;;;;0.40;0.40;;;;;;;;;;6337326;28;20643;-91
2023/07/22 11:58:40;;;;;;;0.50;0.30;;;;;;;;;;6336549;28;20063;-92
2023/07/22 12:01:44;;;;;;;0.45;0.40;;;;;;;;;;6336918;28;20119;-91
2023/07/22 12:04:52;;;;;;;0.50;0.50;;;;;;;;;;6337352;28;20032;-91
2023/07/22 12:07:54;;;;;;;0.47;0.40;;;;;;;;;;6337051;28;20035;-92
2023/07/22 12:11:00;;;;;;;0.55;0.55;;;;;;;;;;6334985;28;20040;-90
2023/07/22 12:14:08;;;;;;;0.60;0.50;;;24.20;64.70;;;;;;6337297;28;20100;-91
2023/07/22 12:17:10;;;;;;;0.40;0.40;;;;;;;;;;6335308;28;20271;-91
2023/07/22 12:20:17;;;;;;;0.50;0.30;;;;;;;;;;6335931;28;20036;-92
2023/07/22 12:23:21;;;;;;;0.90;0.50;;;;;;;;;;6332078;28;20040;-90
2023/07/22 12:26:26;;;;;;;0.60;0.50;;;;;;;;;;6330489;28;20040;-91
2023/07/22 12:29:28;;;;;;;0.50;0.45;;;;;;;;;;6330997;28;20094;-91
2023/07/22 12:32:33;;;;;;;0.30;0.20;;;;;;;;;;6329456;28;20055;-91
2023/07/22 12:35:36;;;;;;;0.45;0.30;;;;;;;;;;6330460;28;20044;-92
2023/07/22 12:38:38;;;;;;;0.47;0.47;;;;;;;;;;6328963;28;20040;-91
2023/07/22 12:41:43;;;;;;;0.40;0.38;;;;;;;;;;6330527;28;20582;-91
2023/07/22 12:44:46;;;;;;;0.45;0.30;;;;;;;;;;6327727;28;20051;-91
2023/07/22 12:47:49;;;;;;;0.60;0.30;;;24.30;62.70;;;;;;6328137;28;20103;-91
2023/07/22 12:50:53;;;;;;;0.40;0.30;;;;;;;;;;6331193;28;20113;-91
2023/07/22 12:53:55;;;;;;;0.35;0.30;;;;;;;;;;6329907;28;20062;-91
2023/07/22 12:56:57;;;;;;;0.35;0.35;;;;;;;;;;6328306;28;20104;-92
2023/07/22 12:59:59;;;;;;;0.60;0.40;;;;;;;;;;6328866;28;20450;-91
2023/07/22 13:03:01;;;;;;;0.68;0.40;;;;;;;;;;6327457;28;20032;-92
2023/07/22 13:06:06;;;;;;;0.50;0.40;;;24.60;65.90;;;;;;6325809;28;20134;-91
2023/07/22 13:09:09;;;;;;;0.85;0.57;;;;;;;;;;6329149;28;20059;-92
2023/07/22 13:12:11;;;;;;;0.40;0.40;;;;;;;;;;6329289;28;20028;-92
2023/07/22 13:15:13;;;;;;;0.50;0.40;;;;;;;;;;6328796;28;20059;-92
2023/07/22 13:18:16;;;;;;;0.47;0.30;;;;;;;;;;6326341;28;20047;-91
2023/07/22 13:21:19;;;;;;;0.68;0.60;;;;;;;;;;6326611;28;20064;-91
2023/07/22 13:24:22;;;;;;;0.80;0.60;;;24.50;61.50;;;;;;6326037;28;20040;-91
2023/07/22 13:27:26;;;;;;;0.50;0.40;;;;;;;;;;6325239;28;20048;-91
2023/07/22 13:30:28;;;;;;;0.50;0.50;;;;;;;;;;6326128;28;20465;-92
2023/07/22 13:33:30;;;;;;;0.60;0.50;;;;;;;;;;6326101;28;20059;-92
2023/07/22 13:36:33;;;;;;;0.77;0.68;;;;;;;;;;6328117;28;20048;-92
2023/07/22 13:39:35;;;;;;;0.75;0.60;;;;;;;;;;6323992;28;20024;-91
2023/07/22 13:42:37;;;;;;;0.55;0.50;;;;;;;;;;6323288;28;20048;-91
2023/07/22 13:45:40;;;;;;;0.82;0.60;;;;;;;;;;6306888;28;20048;-91
2023/07/22 13:48:42;;;;;;;0.98;0.68;;;;;;;;;;6322703;28;20066;-92
2023/07/22 13:51:44;;;;;;;0.50;0.45;;;;;;;;;;6322650;28;20044;-91
2023/07/22 13:54:46;;;;;;;0.68;0.60;;;;;;;;;;6322614;28;20040;-91
2023/07/22 13:57:49;;;;;;;0.68;0.60;;;;;;;;;;6325348;28;20518;-91
2023/07/22 14:00:51;;;;;;;0.60;0.40;;;;;;;;;;6324066;28;20050;-92
2023/07/22 14:03:54;;;;;;;0.65;0.40;;;;;;;;;;6324358;28;20048;-91
2023/07/22 14:06:57;;;;;;;0.80;0.70;;;;;;;;;;6324851;28;20064;-91
2023/07/22 14:09:59;;;;;;;0.38;0.30;;;;;;;;;;6325175;28;20102;-92
2023/07/22 14:13:04;;;;;;;0.50;0.30;;;;;;;;;;6272454;28;20340;-92
2023/07/22 14:16:06;;;;;;;0.90;0.55;;;;;;;;;;6324367;28;20047;-92
2023/07/22 14:19:24;;;;;;;0.70;0.60;;;24.70;62.90;;;;;;6326431;28;20059;-91
2023/07/22 14:22:27;;;;;;;1.15;0.47;;;;;;;;;;6325100;28;20111;-91
2023/07/22 14:25:30;;;;;;;0.70;0.60;;;;;;;;;;6324156;28;20135;-92
2023/07/22 14:28:31;;;;;;;0.50;0.50;;;;;;;;;;6324424;28;20112;-91
2023/07/22 14:31:34;;;;;;;0.70;0.50;;;;;;;;;;6328038;28;20044;-92
2023/07/22 14:34:36;;;;;;;0.63;0.60;;;;;;;;;;6328392;28;20043;-91
2023/07/22 14:37:39;;;;;;;0.77;0.60;;;;;;;;;;6327492;28;20052;-91
2023/07/22 14:40:42;;;;;;;0.70;0.45;;;;;;;;;;6327080;28;20044;-91
2023/07/22 14:43:47;;;;;;;0.80;0.50;;;;;;;;;;6327165;28;20094;-91
2023/07/22 14:46:52;;;;;;;0.55;0.50;;;24.70;62.10;;;;;;6325419;28;20086;-91
2023/07/22 14:49:55;;;;;;;0.50;0.50;;;;;;;;;;6325961;28;20236;-91
2023/07/22 14:52:58;;;;;;;0.93;0.52;;;;;;;;;;6328090;28;20071;-91
2023/07/22 14:56:06;;;;;;;0.40;0.40;;;24.70;59.00;;;;;;6327646;28;20071;-92
2023/07/22 14:59:14;;;;;;;0.50;0.40;;;24.80;62.20;;;;;;6331324;28;20040;-92
2023/07/22 15:02:19;;;;;;;0.82;0.38;;;;;;;;;;6324604;28;20036;-92
2023/07/22 15:05:22;;;;;;;0.73;0.57;;;;;;;;;;6327189;28;20048;-91
2023/07/22 15:08:27;;;;;;;0.77;0.50;;;;;;;;;;6328378;28;20040;-91
2023/07/22 15:11:30;;;;;;;0.52;0.52;;;24.90;62.90;;;;;;6327861;28;20059;-92
2023/07/22 15:14:32;;;;;;;0.68;0.60;;;;;;;;;;6328166;28;20051;-91
2023/07/22 15:17:37;;;;;;;0.55;0.40;;;;;;;;;;6327875;28;20044;-91
2023/07/22 15:20:39;;;;;;;0.65;0.60;;;;;;;;;;6327048;28;20060;-91
2023/07/22 15:23:42;;;;;;;0.52;0.47;;;;;;;;;;6326891;28;20158;-91
2023/07/22 15:26:44;;;;;;;0.45;0.40;;;;;;;;;;6326307;28;20056;-91
2023/07/22 15:29:46;;;;;;;0.88;0.73;;;;;;;;;;6327916;28;20078;-91
2023/07/22 15:32:48;;;;;;;0.60;0.60;;;;;;;;;;6326692;28;20171;-92
2023/07/22 15:35:52;;;;;;;0.80;0.60;;;;;;;;;;6328157;28;20040;-92
2023/07/22 15:38:57;;;;;;;0.98;0.70;;;;;;;;;;6328327;28;20083;-91
2023/07/22 15:41:59;;;;;;;0.63;0.60;;;;;;;;;;6327996;28;20048;-91
2023/07/22 15:45:02;;;;;;;0.70;0.60;;;;;;;;;;6327291;28;20058;-91
2023/07/22 15:48:06;;;;;;;0.63;0.60;;;;;;;;;;6329279;28;20502;-91
2023/07/22 15:51:08;;;;;;;0.90;0.70;;;;;;;;;;6329879;28;20457;-91
2023/07/22 15:54:13;;;;;;;1.00;0.82;;;24.90;62.60;;;;;;6330396;28;20051;-91
2023/07/22 15:57:16;;;;;;;1.52;1.23;;;;;;;;;;6329378;28;20120;-91
2023/07/22 16:00:19;;;;;;;1.08;0.90;;;;;;;;;;6332686;28;20048;-92
2023/07/22 16:03:21;;;;;;;0.75;0.68;;;;;;;;;;6328396;28;20044;-91
2023/07/22 16:06:24;;;;;;;1.08;0.90;;;;;;;;;;6328785;28;20044;-92
2023/07/22 16:09:35;;;;;;;1.10;1.00;;;;;;;;;;6327980;28;20051;-92
2023/07/22 16:12:37;;;;;;;1.23;1.00;;;;;;;;;;6330487;28;20067;-91
2023/07/22 16:15:39;;;;;;;0.90;0.80;;;;;;;;;;6325892;28;20093;-92
2023/07/22 16:18:42;;;;;;;1.30;1.10;;;;;;;;;;6318389;28;20103;-92
2023/07/22 16:21:47;;;;;;;1.10;0.98;;;;;;;;;;6327949;28;20048;-91
2023/07/22 16:24:51;;;;;;;1.02;0.90;;;;;;;;;;6330219;28;20044;-91
2023/07/22 16:27:53;;;;;;;1.13;0.90;;;;;;;;;;6330115;28;20337;-92
2023/07/22 16:30:55;;;;;;;1.02;0.90;;;;;;;;;;6329396;28;20053;-91
2023/07/22 16:33:59;;;;;;;1.10;0.90;;;;;;;;;;6329209;28;20037;-90
2023/07/22 16:37:01;;;;;;;1.23;1.00;;;;;;;;;;6329773;28;20048;-91
2023/07/22 16:40:05;;;;;;;1.80;1.13;;;;;;;;;;6328344;28;20031;-92
2023/07/22 16:43:07;;;;;;;1.58;1.40;;;;;;;;;;6326814;28;20116;-91
2023/07/22 16:46:09;;;;;;;1.17;1.00;;;;;;;;;;6328008;28;20044;-91
2023/07/22 16:49:12;;;;;;;1.48;1.17;;;;;;;;;;6326435;28;20066;-91
2023/07/22 16:52:14;;;;;;;1.52;1.30;;;;;;;;;;6330102;28;20056;-92
2023/07/22 16:55:16;;;;;;;1.27;1.08;;;;;;;;;;6325938;28;20048;-92
2023/07/22 16:58:20;;;;;;;1.52;1.30;;;;;;;;;;6324979;28;20036;-92
2023/07/22 17:01:22;;;;;;;1.40;1.08;;;;;;;;;;6327387;28;20082;-91
2023/07/22 17:04:24;;;;;;;1.50;1.27;;;;;;;;;;6326200;28;20040;-92
2023/07/22 17:07:29;;;;;;;1.55;1.27;;;;;;;;;;6312254;28;20506;-91
2023/07/22 17:10:32;;;;;;;1.50;1.30;;;;;;;;;;6321315;28;20044;-91
2023/07/22 17:13:34;;;;;;;1.70;1.50;;;;;;;;;;6328956;28;20108;-91
2023/07/22 17:16:39;;;;;;;1.60;1.35;;;25.00;61.20;;;;;;6324051;28;20044;-91
2023/07/22 17:19:41;;;;;;;1.38;1.13;;;;;;;;;;6327709;28;20116;-91
2023/07/22 17:22:47;;;;;;;1.75;1.35;;;;;;;;;;6326172;28;20044;-92
2023/07/22 17:25:50;;;;;;;2.10;1.58;;;24.90;62.70;;;;;;6328039;28;20044;-92
2023/07/22 17:28:52;;;;;;;1.50;1.30;;;;;;;;;;6327521;28;20107;-91
2023/07/22 17:31:54;;;;;;;1.80;1.40;;;;;;;;;;6327310;28;20049;-91
2023/07/22 17:34:56;;;;;;;1.58;1.40;;;;;;;;;;6326687;28;20047;-91
2023/07/22 17:37:58;;;;;;;1.67;1.40;;;;;;;;;;6323164;28;20050;-91
2023/07/22 17:41:00;;;;;;;1.27;1.15;;;24.90;61.40;;;;;;6320414;28;20072;-91
2023/07/22 17:44:03;;;;;;;1.48;1.30;;;;;;;;;;6324714;28;20054;-91
2023/07/22 17:47:06;;;;;;;2.13;1.60;;;;;;;;;;6321067;28;20059;-91
2023/07/22 17:50:08;;;;;;;1.52;1.30;;;;;;;;;;6313399;28;20040;-92
2023/07/22 17:53:10;;;;;;;1.25;1.15;;;;;;;;;;6323949;28;20104;-91